Time;durP1;ratioP1;P1;durP2;ratioP2;P2;SDS_P1;SDS_P2;PMS_P1;PMS_P2;Temp;Humidity;BMP_temperature;BMP_pressure;BME280_temperature;BME280_humidity;BME280_pressure;Samples;Min_cycle;Max_cycle;Signal;HPM_P1;HPM_P2
2023/04/17 00:01:05;;;;;;;7.40;6.00;;;;;;;7.97;100.00;96963.45;110271;1245;70520;-71
2023/04/17 00:03:37;;;;;;;8.30;6.30;;;;;;;7.93;100.00;96960.90;110302;1242;68363;-71
2023/04/17 00:06:07;;;;;;;9.50;6.70;;;;;;;7.90;100.00;96954.72;110287;1243;69306;-70
2023/04/17 00:08:37;;;;;;;8.90;6.70;;;;;;;7.89;100.00;96952.89;110270;1246;58943;-71
2023/04/17 00:11:10;;;;;;;8.20;6.40;;;;;;;7.88;100.00;96948.06;110298;1241;58873;-71
2023/04/17 00:13:42;;;;;;;9.30;7.40;;;;;;;7.89;100.00;96947.27;110280;1240;69864;-70
2023/04/17 00:16:13;;;;;;;8.80;7.60;;;;;;;7.91;100.00;96943.03;110337;1240;69286;-71
2023/04/17 00:18:45;;;;;;;8.50;7.20;;;;;;;7.92;100.00;96940.86;110341;1243;68374;-70
2023/04/17 00:21:15;;;;;;;7.90;6.10;;;;;;;7.94;100.00;96942.83;110296;1242;58954;-70
2023/04/17 00:23:45;;;;;;;8.70;6.70;;;;;;;7.95;100.00;96940.48;110276;1242;58878;-71
2023/04/17 00:26:15;;;;;;;9.90;7.80;;;;;;;7.96;100.00;96940.94;110338;1241;70698;-72
2023/04/17 00:28:48;;;;;;;6.60;5.40;;;;;;;7.97;100.00;96943.30;110280;1242;69210;-70
2023/04/17 00:31:18;;;;;;;8.40;6.50;;;;;;;7.97;100.00;96945.17;110272;1242;69900;-70
2023/04/17 00:33:49;;;;;;;8.20;6.20;;;;;;;7.97;100.00;96944.49;110320;1241;58999;-70
2023/04/17 00:36:20;;;;;;;8.30;6.40;;;;;;;7.97;100.00;96940.85;110286;1241;58953;-70
2023/04/17 00:38:52;;;;;;;9.80;6.60;;;;;;;7.96;100.00;96943.00;110285;1243;70710;-70
2023/04/17 00:41:24;;;;;;;10.00;7.30;;;;;;;7.97;100.00;96942.45;110299;1242;69311;-70
2023/04/17 00:43:56;;;;;;;9.00;7.30;;;;;;;7.95;100.00;96940.31;110196;1242;68508;-70
2023/04/17 00:46:27;;;;;;;8.10;6.50;;;;;;;7.94;100.00;96940.35;110305;1248;59011;-70
2023/04/17 00:49:00;;;;;;;9.40;7.70;;;;;;;7.95;100.00;96945.18;110315;1242;58894;-70
2023/04/17 00:51:31;;;;;;;8.80;6.10;;;;;;;7.95;100.00;96941.90;110330;1242;70591;-70
2023/04/17 00:54:02;;;;;;;10.30;7.50;;;;;;;7.95;100.00;96943.27;110290;1242;69228;-70
2023/04/17 00:56:34;;;;;;;9.50;7.00;;;;;;;7.94;100.00;96941.79;110157;1244;68585;-71
2023/04/17 00:59:07;;;;;;;9.20;6.30;;;;;;;7.92;100.00;96940.36;110262;1243;58899;-71
2023/04/17 01:01:39;;;;;;;9.70;7.30;;;;;;;7.90;100.00;96936.47;110292;1243;58885;-69
2023/04/17 01:04:11;;;;;;;9.50;6.90;;;;;;;7.91;100.00;96937.98;110264;1242;71347;-72
2023/04/17 01:06:44;;;;;;;9.90;7.10;;;;;;;7.92;100.00;96936.34;110205;1244;68863;-70
2023/04/17 01:09:14;;;;;;;7.90;6.40;;;;;;;7.93;100.00;96934.54;110240;1241;69713;-70
2023/04/17 01:11:45;;;;;;;10.70;6.10;;;;;;;7.93;100.00;96928.64;110154;1245;58944;-70
2023/04/17 01:14:17;;;;;;;7.00;5.30;;;;;;;7.94;100.00;96932.03;110172;1245;58825;-71
2023/04/17 01:16:47;;;;;;;8.10;6.20;;;;;;;7.94;100.00;96929.77;110335;1242;70639;-70
2023/04/17 01:19:18;;;;;;;8.50;6.20;;;;;;;7.93;100.00;96929.17;110292;1243;69214;-71
2023/04/17 01:21:48;;;;;;;7.40;5.70;;;;;;;7.92;100.00;96931.13;110104;1245;69087;-70
2023/04/17 01:24:19;;;;;;;6.80;5.90;;;;;;;7.92;100.00;96929.77;110182;1243;58919;-70
2023/04/17 01:26:51;;;;;;;8.00;5.90;;;;;;;7.92;100.00;96930.64;110368;1241;58938;-70
2023/04/17 01:29:24;;;;;;;9.30;6.00;;;;;;;7.93;100.00;96928.51;110295;1244;69767;-71
2023/04/17 01:31:54;;;;;;;6.00;5.30;;;;;;;7.91;100.00;96930.17;110177;1241;69163;-70
2023/04/17 01:34:26;;;;;;;8.10;5.70;;;;;;;7.90;100.00;96931.77;110358;1243;68516;-70
2023/04/17 01:36:57;;;;;;;5.60;4.50;;;;;;;7.88;100.00;96933.98;110326;1242;58870;-70
2023/04/17 01:39:28;;;;;;;7.80;6.00;;;;;;;7.87;100.00;96928.40;110309;1242;58872;-70
2023/04/17 01:41:59;;;;;;;6.60;5.40;;;;;;;7.84;100.00;96929.29;110203;1242;69898;-69
2023/04/17 01:44:30;;;;;;;6.20;4.40;;;;;;;7.81;100.00;96931.94;110143;1246;69229;-70
2023/04/17 01:47:02;;;;;;;7.10;5.10;;;;;;;7.79;100.00;96929.07;110284;1247;69483;-71
2023/04/17 01:49:35;;;;;;;6.70;5.40;;;;;;;7.77;100.00;96929.45;110304;1242;58893;-69
2023/04/17 01:52:06;;;;;;;7.00;5.70;;;;;;;7.74;100.00;96927.37;110210;1241;58880;-71
2023/04/17 01:54:38;;;;;;;8.20;6.40;;;;;;;7.71;100.00;96929.65;110345;1241;70591;-71
2023/04/17 01:57:10;;;;;;;7.50;6.30;;;;;;;7.65;100.00;96931.41;110306;1241;68388;-71
2023/04/17 01:59:42;;;;;;;7.80;5.90;;;;;;;7.61;100.00;96929.10;110147;1244;69261;-71
2023/04/17 02:02:13;;;;;;;7.00;5.30;;;;;;;7.58;100.00;96929.84;110261;1247;58875;-71
2023/04/17 02:04:46;;;;;;;8.00;5.50;;;;;;;7.53;100.00;96931.75;110251;1241;58886;-71
2023/04/17 02:07:18;;;;;;;6.50;5.10;;;;;;;7.47;100.00;96930.92;110253;1242;68746;-72
2023/04/17 02:09:51;;;;;;;7.30;5.30;;;;;;;7.43;100.00;96931.02;110299;1242;69056;-71
2023/04/17 02:12:21;;;;;;;9.40;6.80;;;;;;;7.38;100.00;96932.77;110239;1242;69849;-70
2023/04/17 02:14:52;;;;;;;9.10;7.10;;;;;;;7.31;100.00;96931.66;110161;1245;58979;-70
2023/04/17 02:17:22;;;;;;;9.10;7.00;;;;;;;7.25;100.00;96935.05;110192;1243;59266;-70
2023/04/17 02:19:52;;;;;;;10.80;6.80;;;;;;;7.18;100.00;96933.80;110287;1242;70479;-71
2023/04/17 02:22:23;;;;;;;9.90;6.90;;;;;;;7.11;100.00;96935.25;110191;1245;69020;-70
2023/04/17 02:24:52;;;;;;;10.20;7.80;;;;;;;7.06;100.00;96937.52;110258;1242;69087;-70
2023/04/17 02:27:23;;;;;;;10.10;8.10;;;;;;;7.01;100.00;96938.55;110307;1242;59181;-71
2023/04/17 02:29:52;;;;;;;10.30;8.20;;;;;;;6.95;100.00;96935.48;110169;1244;58793;-70
2023/04/17 02:32:23;;;;;;;10.30;8.30;;;;;;;6.91;100.00;96940.95;110202;1245;70617;-71
2023/04/17 02:34:55;;;;;;;10.50;7.70;;;;;;;6.87;100.00;96939.48;110209;1241;69228;-71
2023/04/17 02:37:29;;;;;;;9.30;6.80;;;;;;;6.83;100.00;96939.18;110232;1246;69195;-71
2023/04/17 02:40:05;;;;;;;10.30;7.80;;;;;;;6.81;100.00;96941.77;110132;1241;58938;-70
2023/04/17 02:42:35;;;;;;;12.70;8.30;;;;;;;6.78;100.00;96940.38;110211;1245;58929;-70
2023/04/17 02:45:06;;;;;;;11.90;7.90;;;;;;;6.75;100.00;96942.29;110148;1241;70437;-71
2023/04/17 02:47:36;;;;;;;11.40;8.80;;;;;;;6.74;100.00;96938.56;110150;1244;68160;-70
2023/04/17 02:50:06;;;;;;;;;;;;;;;6.71;100.00;96937.08;110175;1241;68514;-70
2023/04/17 02:52:41;;;;;;;10.50;7.50;;;;;;;6.66;100.00;96939.59;110161;1242;58999;-70
2023/04/17 02:55:12;;;;;;;10.90;6.00;;;;;;;6.63;100.00;96944.11;110294;1242;58853;-71
2023/04/17 02:57:42;;;;;;;17.60;5.90;;;;;;;6.61;100.00;96944.92;110148;1245;70618;-70
2023/04/17 03:00:16;;;;;;;18.60;6.60;;;;;;;6.59;100.00;96941.77;110262;1242;68905;-70
2023/04/17 03:02:47;;;;;;;33.80;8.90;;;;;;;6.55;100.00;96943.05;110315;1242;68609;-70
2023/04/17 03:05:19;;;;;;;;;;;;;;;6.50;100.00;96942.69;110186;1245;58897;-70
2023/04/17 03:07:50;;;;;;;10.40;6.80;;;;;;;6.46;100.00;96944.66;110351;1242;58873;-70
2023/04/17 03:10:20;;;;;;;9.00;6.80;;;;;;;6.43;100.00;96945.55;110241;1241;70569;-70
2023/04/17 03:12:50;;;;;;;13.00;6.80;;;;;;;6.39;100.00;96947.40;110141;1245;69119;-70
2023/04/17 03:15:21;;;;;;;11.10;7.10;;;;;;;6.35;100.00;96946.95;110147;1246;69685;-70
2023/04/17 03:17:53;;;;;;;17.40;7.70;;;;;;;6.32;100.00;96949.77;110138;1241;58891;-71
2023/04/17 03:20:29;;;;;;;15.90;8.90;;;;;;;6.29;100.00;96953.36;110174;1243;58902;-71
2023/04/17 03:22:59;;;;;;;14.20;7.90;;;;;;;6.27;100.00;96956.45;110298;1242;70505;-71
2023/04/17 03:25:30;;;;;;;12.50;7.90;;;;;;;6.24;100.00;96955.93;110436;1242;69454;-71
2023/04/17 03:28:01;;;;;;;17.70;8.30;;;;;;;6.23;100.00;96961.38;110458;1240;68474;-71
2023/04/17 03:30:34;;;;;;;20.30;8.50;;;;;;;6.22;100.00;96960.54;110237;1242;58957;-70
2023/04/17 03:33:07;;;;;;;13.40;7.50;;;;;;;6.21;100.00;96963.58;110502;1242;58871;-70
2023/04/17 03:35:38;;;;;;;13.40;7.90;;;;;;;6.21;100.00;96964.98;110332;1242;70522;-70
2023/04/17 03:38:10;;;;;;;17.20;9.60;;;;;;;6.20;100.00;96960.89;110499;1243;68303;-70
2023/04/17 03:40:41;;;;;;;14.70;9.30;;;;;;;6.19;100.00;96961.31;110489;1242;68550;-71
2023/04/17 03:43:12;;;;;;;14.80;9.40;;;;;;;6.17;100.00;96963.68;110251;1242;58946;-70
2023/04/17 03:45:45;;;;;;;13.00;8.70;;;;;;;6.16;100.00;96963.06;110366;1243;58890;-71
2023/04/17 03:48:16;;;;;;;11.60;8.20;;;;;;;6.13;100.00;96964.02;110299;1242;70451;-71
2023/04/17 03:50:47;;;;;;;11.20;8.30;;;;;;;6.12;100.00;96960.80;110286;1244;69236;-70
2023/04/17 03:53:18;;;;;;;14.00;9.50;;;;;;;6.12;100.00;96961.91;110224;1249;68703;-71
2023/04/17 03:55:48;;;;;;;16.00;9.30;;;;;;;6.11;100.00;96960.02;110221;1242;58857;-70
2023/04/17 03:58:28;;;;;;;;;;;;;;;6.08;100.00;96957.48;110581;1241;58876;-70
2023/04/17 04:01:00;;;;;;;15.60;10.10;;;;;;;6.02;100.00;96958.36;110249;1242;70570;-70
2023/04/17 04:03:32;;;;;;;16.70;10.70;;;;;;;5.97;100.00;96958.14;110252;1248;69743;-70
2023/04/17 04:06:03;;;;;;;16.70;10.40;;;;;;;5.93;100.00;96967.55;110187;1245;68473;-70
2023/04/17 04:08:32;;;;;;;15.90;11.10;;;;;;;5.89;100.00;96972.09;110225;1242;58878;-70
2023/04/17 04:11:02;;;;;;;25.70;11.00;;;;;;;5.86;100.00;96970.55;110255;1242;58878;-71
2023/04/17 04:13:36;;;;;;;14.00;9.90;;;;;;;5.84;100.00;96971.52;110508;1240;71163;-70
2023/04/17 04:16:07;;;;;;;14.50;10.40;;;;;;;5.82;100.00;96973.88;110216;1249;69183;-71
2023/04/17 04:18:38;;;;;;;17.50;10.70;;;;;;;5.82;100.00;96971.30;110412;1242;69226;-71
2023/04/17 04:21:10;;;;;;;15.70;10.90;;;;;;;5.84;100.00;96969.65;110233;1243;58941;-71
2023/04/17 04:23:41;;;;;;;15.20;11.10;;;;;;;5.85;100.00;96969.73;110474;1241;58835;-71
2023/04/17 04:26:11;;;;;;;13.80;9.70;;;;;;;5.86;100.00;96968.46;110472;1241;69590;-70
2023/04/17 04:28:46;;;;;;;15.60;10.40;;;;;;;5.89;100.00;96969.00;110237;1245;69783;-70
2023/04/17 04:31:29;;;;;;;11.80;7.80;;;;;;;5.92;100.00;96970.75;110500;1242;69555;-69
2023/04/17 04:34:01;;;;;;;12.30;9.80;;;;;;;5.93;100.00;96974.27;110491;1248;58937;-69
2023/04/17 04:36:35;;;;;;;13.00;9.20;;;;;;;5.96;100.00;96973.41;110545;1244;58928;-69
2023/04/17 04:39:19;;;;;;;16.00;10.50;;;;;;;6.00;100.00;96978.86;110537;1240;70777;-72
2023/04/17 04:41:50;;;;;;;16.80;9.60;;;;;;;6.03;100.00;96979.02;110499;1242;68326;-71
2023/04/17 04:44:20;;;;;;;14.80;10.30;;;;;;;6.10;100.00;96977.23;110374;1242;68789;-71
2023/04/17 04:46:54;;;;;;;12.70;9.30;;;;;;;6.15;100.00;96976.77;110309;1243;58934;-70
2023/04/17 04:49:23;;;;;;;18.30;11.90;;;;;;;6.20;100.00;96972.83;110303;1242;58947;-72
2023/04/17 04:51:52;;;;;;;16.40;11.00;;;;;;;6.23;100.00;96975.05;110303;1242;70290;-72
2023/04/17 04:54:26;;;;;;;23.20;14.00;;;;;;;6.26;100.00;96974.15;110290;1244;69486;-70
2023/04/17 04:56:58;;;;;;;24.80;15.00;;;;;;;6.31;100.00;96974.24;110226;1241;69395;-70
2023/04/17 04:59:28;;;;;;;23.30;16.90;;;;;;;6.35;100.00;96972.54;110243;1247;58933;-71
2023/04/17 05:02:12;;;;;;;18.80;13.30;;;;;;;6.40;100.00;96975.70;110465;1242;58874;-68
2023/04/17 05:04:41;;;;;;;19.00;14.70;;;;;;;6.43;100.00;96981.06;110274;1245;70462;-69
2023/04/17 05:07:11;;;;;;;22.80;16.50;;;;;;;6.46;100.00;96978.98;110530;1242;69875;-68
2023/04/17 05:09:41;;;;;;;21.90;15.40;;;;;;;6.48;100.00;96982.14;110232;1241;69948;-68
2023/04/17 05:12:11;;;;;;;24.60;16.10;;;;;;;6.50;100.00;96981.50;110406;1242;58941;-69
2023/04/17 05:14:40;;;;;;;37.50;17.20;;;;;;;6.52;100.00;96981.36;110407;1243;58818;-70
2023/04/17 05:17:11;;;;;;;19.20;13.60;;;;;;;6.57;100.00;96982.24;110496;1242;71055;-69
2023/04/17 05:19:40;;;;;;;24.20;16.50;;;;;;;6.70;100.00;96981.63;110254;1244;67564;-68
2023/04/17 05:22:11;;;;;;;22.80;15.80;;;;;;;6.85;100.00;96983.25;110250;1242;69888;-68
2023/04/17 05:24:49;;;;;;;20.00;14.90;;;;;;;7.02;100.00;96985.39;110344;1246;58896;-67
2023/04/17 05:27:18;;;;;;;21.50;14.70;;;;;;;7.19;100.00;96983.63;110130;1245;58875;-67
2023/04/17 05:29:48;;;;;;;21.10;15.00;;;;;;;7.40;100.00;96986.72;110186;1245;71149;-67
2023/04/17 05:32:18;;;;;;;19.40;14.00;;;;;;;7.68;100.00;96986.07;110285;1242;69680;-67
2023/04/17 05:34:56;;;;;;;16.80;13.30;;;;;;;8.01;100.00;96986.89;110294;1249;70209;-68
2023/04/17 05:37:27;;;;;;;15.30;12.00;;;;;;;8.35;100.00;96987.52;110292;1241;58868;-67
2023/04/17 05:39:58;;;;;;;15.40;12.50;;;;;;;8.75;100.00;96987.65;110276;1242;58936;-69
2023/04/17 05:42:28;;;;;;;15.40;12.80;;;;;;;9.04;100.00;96991.62;110285;1242;71047;-67
2023/04/17 05:44:58;;;;;;;17.00;12.90;;;;;;;9.22;100.00;96994.79;110136;1245;69656;-67
2023/04/17 05:47:28;;;;;;;17.20;14.00;;;;;;;9.37;100.00;96994.37;110212;1246;68526;-67
2023/04/17 05:49:58;;;;;;;17.00;13.20;;;;;;;9.43;100.00;96995.14;110184;1243;58878;-67
2023/04/17 05:52:29;;;;;;;17.80;15.10;;;;;;;9.56;100.00;96996.77;110372;1241;58991;-67
2023/04/17 05:54:58;;;;;;;15.30;13.60;;;;;;;9.60;100.00;96999.24;110277;1242;71205;-68
2023/04/17 05:57:28;;;;;;;15.70;12.80;;;;;;;9.70;100.00;97000.27;110166;1244;69777;-68
2023/04/17 05:59:57;;;;;;;16.90;14.20;;;;;;;9.73;100.00;96997.73;110342;1242;69078;-68
2023/04/17 06:02:26;;;;;;;15.70;13.40;;;;;;;9.73;100.00;96996.19;110166;1245;58934;-68
2023/04/17 06:04:57;;;;;;;18.00;15.60;;;;;;;9.79;100.00;96998.89;110268;1242;58866;-68
2023/04/17 06:07:27;;;;;;;16.40;14.10;;;;;;;9.75;100.00;97000.23;110241;1243;71163;-68
2023/04/17 06:09:56;;;;;;;16.90;14.20;;;;;;;9.91;100.00;96998.98;110343;1242;69359;-68
2023/04/17 06:12:26;;;;;;;17.40;14.70;;;;;;;10.01;100.00;96999.47;110343;1245;69867;-68
2023/04/17 06:14:55;;;;;;;14.70;12.20;;;;;;;10.09;100.00;96996.88;110269;1243;58972;-67
2023/04/17 06:17:24;;;;;;;12.10;10.40;;;;;;;10.22;100.00;96994.31;110246;1242;58889;-68
2023/04/17 06:19:55;;;;;;;11.00;9.50;;;;;;;10.50;100.00;96996.36;110294;1242;69829;-69
2023/04/17 06:22:24;;;;;;;12.00;8.30;;;;;;;10.78;100.00;96997.65;110566;1242;69903;-68
2023/04/17 06:24:54;;;;;;;10.40;9.20;;;;;;;10.94;100.00;97000.17;110394;1242;69903;-68
2023/04/17 06:27:23;;;;;;;12.30;10.00;;;;;;;11.16;100.00;96998.39;110360;1243;58894;-68
2023/04/17 06:29:52;;;;;;;11.30;9.10;;;;;;;11.31;100.00;97000.67;110196;1244;58883;-68
2023/04/17 06:32:23;;;;;;;11.30;10.20;;;;;;;11.49;100.00;96998.23;110190;1244;70395;-68
2023/04/17 06:34:52;;;;;;;12.40;10.80;;;;;;;11.59;100.00;96998.31;110208;1249;69764;-68
2023/04/17 06:37:38;;;;;;;12.20;11.00;;;;;;;11.78;99.60;96993.21;110517;1242;69231;-69
2023/04/17 06:40:08;;;;;;;10.60;9.50;;;;;;;12.05;98.23;96992.84;110271;1243;59281;-69
2023/04/17 06:42:37;;;;;;;11.50;9.40;;;;;;;11.98;97.34;96990.35;110367;1241;58960;-68
2023/04/17 06:45:11;;;;;;;10.50;8.20;;;;;;;12.18;98.14;96992.10;110241;1242;71138;-68
2023/04/17 06:47:41;;;;;;;11.60;8.70;;;;;;;12.57;96.89;96994.86;110353;1242;69645;-68
2023/04/17 06:50:10;;;;;;;8.50;7.40;;;;;;;12.82;95.20;96995.98;110422;1242;70073;-68
2023/04/17 06:52:39;;;;;;;8.90;7.30;;;;;;;13.22;93.70;96992.95;110387;1241;58931;-68
2023/04/17 06:55:08;;;;;;;9.60;7.50;;;;;;;13.51;89.84;96997.17;110421;1242;58873;-69
2023/04/17 06:57:37;;;;;;;;;;;;;;;13.88;88.57;96998.14;110501;1242;71533;-69
2023/04/17 07:00:07;;;;;;;9.50;7.20;;;;;;;14.18;88.46;97002.67;110428;1242;68752;-70
2023/04/17 07:02:36;;;;;;;9.40;6.30;;;;;;;14.29;87.24;97004.12;110427;1241;69734;-69
2023/04/17 07:05:06;;;;;;;6.60;6.00;;;;;;;14.38;86.20;97008.91;110542;1244;58934;-69
2023/04/17 07:07:36;;;;;;;6.50;5.50;;;;;;;14.60;81.90;97009.42;110523;1241;58870;-68
2023/04/17 07:10:06;;;;;;;7.90;6.20;;;;;;;14.98;81.83;97012.30;110610;1241;70961;-68
2023/04/17 07:12:34;;;;;;;6.30;4.90;;;;;;;15.33;78.27;97009.74;110466;1240;69788;-67
2023/04/17 07:15:03;;;;;;;5.40;4.70;;;;;;;15.69;74.69;97008.39;110480;1243;69493;-69
2023/04/17 07:17:32;;;;;;;7.50;6.00;;;;;;;15.96;73.34;97016.17;110425;1241;58912;-69
2023/04/17 07:20:01;;;;;;;6.10;4.80;;;;;;;16.00;72.73;97016.92;110336;1241;58939;-68
2023/04/17 07:22:31;;;;;;;5.50;4.90;;;;;;;16.23;70.15;97011.77;110949;1241;71124;-68
2023/04/17 07:24:59;;;;;;;6.20;5.00;;;;;;;16.50;67.67;97011.63;110442;1240;68479;-67
2023/04/17 07:27:28;;;;;;;6.90;4.30;;;;;;;16.87;66.14;97012.73;110341;1243;69372;-68
2023/04/17 07:29:57;;;;;;;5.30;3.70;;;;;;;17.02;63.79;97009.96;110532;1239;58886;-67
2023/04/17 07:32:27;;;;;;;5.20;3.70;;;;;;;17.03;60.85;97014.20;110504;1241;58895;-67
2023/04/17 07:34:55;;;;;;;;;;;;;;;16.81;59.55;97012.16;110490;1241;70826;-68
2023/04/17 07:37:25;;;;;;;5.90;4.00;;;;;;;16.54;59.10;97012.30;110540;1242;69035;-65
2023/04/17 07:39:53;;;;;;;4.90;3.60;;;;;;;16.38;59.94;97017.67;110569;1242;69869;-68
2023/04/17 07:42:22;;;;;;;6.20;4.10;;;;;;;16.35;59.86;97020.13;110508;1241;58870;-67
2023/04/17 07:44:51;;;;;;;4.30;3.70;;;;;;;16.22;57.93;97020.48;110537;1241;58867;-68
2023/04/17 07:47:19;;;;;;;4.70;3.70;;;;;;;16.16;59.72;97024.21;110521;1242;71167;-69
2023/04/17 07:49:50;;;;;;;4.80;3.90;;;;;;;16.25;59.45;97019.36;110416;1241;68529;-68
2023/04/17 07:52:19;;;;;;;4.10;3.30;;;;;;;16.52;60.17;97023.42;110354;1243;69936;-69
2023/04/17 07:54:48;;;;;;;5.10;3.80;;;;;;;16.89;59.93;97017.85;110320;1241;58864;-68
2023/04/17 07:57:17;;;;;;;5.80;3.60;;;;;;;17.13;55.88;97018.30;110320;1249;58872;-69
2023/04/17 07:59:46;;;;;;;4.30;3.20;;;;;;;17.30;56.57;97015.39;110452;1241;69649;-68
2023/04/17 08:02:15;;;;;;;3.70;2.60;;;;;;;17.46;55.26;97018.20;110521;1241;69290;-68
2023/04/17 08:04:45;;;;;;;3.50;2.70;;;;;;;17.30;53.04;97012.42;110437;1242;69227;-68
2023/04/17 08:07:17;;;;;;;3.30;2.50;;;;;;;17.25;54.14;97012.06;110315;1240;58889;-68
2023/04/17 08:09:46;;;;;;;4.30;2.70;;;;;;;17.39;54.17;97014.63;110409;1241;58889;-67
2023/04/17 08:12:14;;;;;;;4.40;2.60;;;;;;;17.50;53.92;97010.48;110421;1241;71607;-68
2023/04/17 08:14:43;;;;;;;4.20;2.50;;;;;;;17.40;52.85;97016.30;110512;1241;68354;-69
2023/04/17 08:17:12;;;;;;;4.30;2.60;;;;;;;17.49;54.10;97010.28;110398;1241;69525;-68
2023/04/17 08:19:41;;;;;;;3.30;2.20;;;;;;;17.74;53.00;97013.40;110351;1240;58868;-68
2023/04/17 08:22:13;;;;;;;3.50;2.80;;;;;;;17.79;52.53;97014.42;110173;1242;58865;-67
2023/04/17 08:24:42;;;;;;;3.20;2.50;;;;;;;17.68;53.92;97018.25;110299;1242;70490;-68
2023/04/17 08:27:13;;;;;;;;;;;;;;;17.75;52.85;97021.36;110314;1242;69010;-68
2023/04/17 08:29:42;;;;;;;2.90;2.10;;;;;;;17.55;52.23;97023.35;110292;1242;69254;-68
2023/04/17 08:32:11;;;;;;;2.50;2.10;;;;;;;17.32;51.52;97024.58;110293;1241;58983;-68
2023/04/17 08:34:43;;;;;;;3.10;2.20;;;;;;;17.07;51.68;97028.33;110153;1245;58828;-69
2023/04/17 08:37:12;;;;;;;3.40;2.10;;;;;;;16.86;52.51;97027.31;110290;1242;71142;-68
2023/04/17 08:39:41;;;;;;;2.50;1.90;;;;;;;16.63;52.30;97027.73;110041;1242;436278;-68
2023/04/17 08:42:10;;;;;;;2.60;1.90;;;;;;;16.67;54.16;97033.15;110237;1242;68505;-69
2023/04/17 08:44:46;;;;;;;3.70;2.10;;;;;;;16.85;54.47;97037.27;110284;1241;58871;-68
2023/04/17 08:47:17;;;;;;;2.20;1.70;;;;;;;17.15;53.83;97041.48;110324;1242;58938;-68
2023/04/17 08:49:49;;;;;;;2.90;1.80;;;;;;;17.65;52.83;97042.12;110376;1248;70670;-68
2023/04/17 08:52:18;;;;;;;1.70;1.50;;;;;;;18.42;51.42;97047.02;110330;1241;68544;-67
2023/04/17 08:54:48;;;;;;;;;;;;;;;19.01;49.28;97044.57;110367;1242;69920;-68
2023/04/17 08:57:19;;;;;;;1.80;1.40;;;;;;;19.23;46.57;97036.56;110336;1242;59083;-67
2023/04/17 08:59:48;;;;;;;2.60;1.60;;;;;;;19.05;46.02;97045.44;110350;1242;58866;-67
2023/04/17 09:02:16;;;;;;;2.40;1.90;;;;;;;19.15;47.24;97040.27;110225;1240;70580;-67
2023/04/17 09:04:47;;;;;;;2.90;1.80;;;;;;;19.25;46.92;97046.38;110291;1241;69268;-68
2023/04/17 09:07:17;;;;;;;2.10;1.40;;;;;;;19.26;46.45;97043.63;110111;1241;70227;-68
2023/04/17 09:09:53;;;;;;;;;;;;;;;19.13;46.46;97044.79;110141;1241;58911;-68
2023/04/17 09:12:23;;;;;;;1.70;1.50;;;;;;;19.26;46.44;97038.66;110302;1241;58878;-68
2023/04/17 09:14:52;;;;;;;1.40;1.30;;;;;;;19.10;46.69;97038.88;110187;1240;70546;-68
2023/04/17 09:17:21;;;;;;;2.70;1.70;;;;;;;18.89;46.85;97039.14;110308;1242;68768;-67
2023/04/17 09:20:10;;;;;;;3.00;1.70;;;;;;;18.61;47.47;97040.68;110356;1247;69203;-68
2023/04/17 09:22:40;;;;;;;2.20;1.50;;;;;;;18.28;48.08;97036.00;110381;1241;58937;-66
2023/04/17 09:25:19;;;;;;;2.10;1.40;;;;;;;17.91;48.90;97038.63;110155;1243;58877;-71
2023/04/17 09:27:48;;;;;;;;;;;;;;;17.93;49.86;97033.23;110183;1241;71133;-70
2023/04/17 09:30:17;;;;;;;2.20;1.60;;;;;;;17.97;50.65;97035.43;110199;1240;69849;-70
2023/04/17 09:33:02;;;;;;;2.50;1.60;;;;;;;18.12;51.39;97035.88;110177;1241;69229;-72
2023/04/17 09:35:32;;;;;;;1.50;1.40;;;;;;;18.22;49.73;97024.85;110168;1244;58919;-71
2023/04/17 09:38:00;;;;;;;2.50;1.70;;;;;;;18.15;49.26;97031.11;110128;1244;58937;-71
2023/04/17 09:40:40;;;;;;;2.60;1.70;;;;;;;17.98;50.33;97029.64;110147;1241;70509;-72
2023/04/17 09:43:09;;;;;;;2.70;1.80;;;;;;;17.91;50.14;97027.61;110216;1241;69661;-70
2023/04/17 09:45:40;;;;;;;1.80;1.40;;;;;;;17.73;50.70;97028.48;110125;1243;69074;-72
2023/04/17 09:48:11;;;;;;;2.00;1.60;;;;;;;17.67;51.52;97020.80;110187;1244;58940;-70
2023/04/17 09:50:40;;;;;;;1.80;1.40;;;;;;;17.69;51.81;97024.30;110108;1244;58830;-71
2023/04/17 09:53:10;;;;;;;3.40;1.50;;;;;;;17.68;51.72;97020.31;110081;1242;71232;-71
2023/04/17 09:55:40;;;;;;;2.10;1.40;;;;;;;17.58;52.35;97023.21;110085;1244;69793;-72
2023/04/17 09:58:10;;;;;;;3.10;1.40;;;;;;;17.64;51.94;97014.30;110227;1241;69193;-71
2023/04/17 10:00:40;;;;;;;2.10;1.30;;;;;;;17.56;51.94;97017.60;110134;1243;58887;-71
2023/04/17 10:03:14;;;;;;;4.00;2.00;;;;;;;17.57;52.36;97020.67;110243;1244;58893;-71
2023/04/17 10:05:45;;;;;;;3.90;1.80;;;;;;;17.64;52.28;97020.23;110178;1244;70413;-71
2023/04/17 10:08:13;;;;;;;2.80;1.40;;;;;;;17.70;52.55;97016.95;110139;1244;69686;-71
2023/04/17 10:10:42;;;;;;;3.00;1.50;;;;;;;17.78;51.81;97016.11;110153;1246;69083;-73
2023/04/17 10:13:11;;;;;;;3.90;1.60;;;;;;;17.88;51.58;97010.29;110142;1251;59353;-74
2023/04/17 10:15:45;;;;;;;3.10;1.80;;;;;;;17.95;50.84;97013.38;110073;1243;58908;-72
2023/04/17 10:18:32;;;;;;;2.50;1.40;;;;;;;17.82;50.50;97008.93;109925;1242;70236;-73
2023/04/17 10:21:24;;;;;;;2.00;1.60;;;;;;;17.72;50.37;97006.51;110175;1244;69838;-72
2023/04/17 10:23:52;;;;;;;2.20;1.40;;;;;;;17.55;50.01;97006.63;110290;1242;69923;-71
2023/04/17 10:26:24;;;;;;;2.00;1.50;;;;;;;17.35;50.66;97007.14;110537;1242;58937;-72
2023/04/17 10:28:56;;;;;;;2.60;1.20;;;;;;;17.30;50.45;97006.95;110309;1241;58853;-74
2023/04/17 10:32:04;;;;;;;1.60;1.00;;;;;;;17.37;51.21;97003.48;110152;1241;70523;-73
2023/04/17 10:34:34;;;;;;;3.80;1.70;;;;;;;17.62;51.11;97002.27;110174;1243;69568;-73
2023/04/17 10:37:03;;;;;;;2.30;1.40;;;;;;;18.27;50.55;96996.28;110274;1241;69060;-73
2023/04/17 10:39:51;;;;;;;2.90;2.20;;;;;;;19.03;48.80;96987.54;110248;1243;58940;-73
2023/04/17 10:42:22;;;;;;;1.70;1.20;;;;;;;19.66;47.56;96991.34;110230;1242;58867;-74
2023/04/17 10:45:00;;;;;;;2.10;1.40;;;;;;;20.30;48.58;96986.98;110184;1245;70507;-73
2023/04/17 10:47:33;;;;;;;1.90;1.30;;;;;;;21.09;44.62;96985.59;110334;1243;69652;-72
2023/04/17 10:50:07;;;;;;;1.50;1.20;;;;;;;21.10;42.37;96984.93;110233;1240;69169;-72
2023/04/17 10:52:38;;;;;;;2.30;1.40;;;;;;;21.34;41.74;96974.50;110224;1241;58960;-72
2023/04/17 10:55:16;;;;;;;3.60;1.40;;;;;;;21.91;41.58;96982.65;110295;1241;58929;-72
2023/04/17 10:57:51;;;;;;;3.00;1.30;;;;;;;22.66;41.21;96977.86;110330;1241;70845;-72
2023/04/17 11:00:50;;;;;;;2.60;1.40;;;;;;;23.28;38.35;96975.27;110324;1242;68312;-72
2023/04/17 11:03:21;;;;;;;3.20;1.50;;;;;;;23.64;36.37;96976.27;110265;1243;69252;-74
2023/04/17 11:05:51;;;;;;;2.80;1.70;;;;;;;23.70;35.59;96977.38;110342;1243;58902;-75
2023/04/17 11:08:21;;;;;;;2.50;1.60;;;;;;;23.05;36.40;96974.25;110347;1241;58892;-72
2023/04/17 11:10:55;;;;;;;1.80;1.60;;;;;;;22.39;37.50;96980.65;110284;1242;70491;-74
2023/04/17 11:13:25;;;;;;;1.80;1.30;;;;;;;21.95;38.49;96974.14;110355;1241;67292;-72
2023/04/17 11:15:54;;;;;;;2.40;1.40;;;;;;;21.86;39.14;96975.08;110320;1243;69105;-71
2023/04/17 11:18:25;;;;;;;2.40;1.20;;;;;;;21.79;39.11;96975.68;110322;1242;58950;-73
2023/04/17 11:20:56;;;;;;;2.80;1.60;;;;;;;21.75;39.00;96975.98;110258;1241;58886;-73
2023/04/17 11:23:32;;;;;;;1.80;1.50;;;;;;;21.85;38.78;96971.27;110324;1242;70493;-71
2023/04/17 11:26:01;;;;;;;2.40;1.40;;;;;;;22.01;38.85;96969.27;110352;1240;69198;-74
2023/04/17 11:28:30;;;;;;;2.50;1.40;;;;;;;21.79;38.74;96970.52;110337;1241;69069;-73
2023/04/17 11:30:59;;;;;;;2.80;1.50;;;;;;;21.42;39.03;96970.16;110392;1245;58950;-73
2023/04/17 11:33:34;;;;;;;;;;;;;;;21.14;39.48;96967.61;111043;1241;58848;-72
2023/04/17 11:36:06;;;;;;;2.10;1.20;;;;;;;20.83;39.90;96965.32;110402;1241;70909;-74
2023/04/17 11:38:35;;;;;;;3.10;1.40;;;;;;;20.51;41.11;96956.70;110523;1239;68298;-73
2023/04/17 11:41:08;;;;;;;3.00;1.70;;;;;;;20.44;41.60;96954.15;110528;1241;70335;-73